Share

Alliance, NE

Alliance Municipal (KAIA) Elev 3930 ft | 42.06 °N, 102.80 °W | Change Station

Current weather conditions updated 37 minutes ago

Overcast
Overcast
31 °F
Feels Like 25 °F
N
6
Wind Variable Wind from SSE
Sunrise 6:07 AM
Sunset 7:35 PM
Moon Waning Gibbous

Today is forecast to be Warmer than yesterday.

Pressure 30.21 in
Visibility 9.0 miles
Clouds Mostly Cloudy 1000 ft
Overcast 4500 ft
Windchill 25 °F
Dew Point 28 °F
Humidity 89%
Rainfall 0.00 in
Snow Depth Not available.
UV 0 out of 16
Pollen 9.10 out of 12
Air Quality Not available.
Flu Activity Sporadic
METAR KAIA 171253Z AUTO 16005KT 9SM BKN010 OVC045 M01/M02 A3016 RMK AO2 SLP230 T10061022

More Conditions Fewer Conditions

Pressure 30.21 in
Visibility 9.0 miles
Clouds Mostly Cloudy 1000 ft
Overcast 4500 ft
Windchill 25 °F
Dew Point 28 °F
Humidity 89%
Rainfall 0.00 in
Snow Depth Not available.
UV 0 out of 16
Pollen 9.10 out of 12
Air Quality Not available.
Flu Activity Sporadic
METAR KAIA 171253Z AUTO 16005KT 9SM BKN010 OVC045 M01/M02 A3016 RMK AO2 SLP230 T10061022

More Conditions Fewer Conditions

10-Day Forecast

Almanac

Astronomy

Apr. 17, 2014 Rise Set
Actual Time 6:07 AM MDT 7:35 PM MDT
Civil Twilight 5:38 AM MDT 8:04 PM MDT
Nautical Twilight 5:03 AM MDT 8:39 PM MDT
Astronomical Twilight 4:26 AM MDT 9:17 PM MDT
Moon 10:25 PM MDT 7:39 AM MDT
Length of Visible Light 14h 26m
Length of Day
13h 27m
Tomorrow will be 2m 40s longer.
Waning Gibbous, 94% of the Moon is Illuminated
Today
Waning Gibbous
Apr 22
Last Quarter
Apr 29
New
May 6
First Quarter
May 14
Full

Today's Extremes

State Highs State Lows

Community

  • New Day
    New Day
  • Lake Michigan Sunrise
    Lake Michigan Sunrise
  • sunset from izmir, narlıdere
    sunset from izmir, narlıdere
  • oregon cherry
    oregon cherry
  • Sunset over the Bay
    Sunset over the Bay

WunderPhotos

Upload Photos

1,701,963 photos uploaded!

Nearby

Snow Depth

Station Depth Elevation
No new snow has been reported.

Coastal Water Temperatures

Place Temperature
No Stations Reporting

Earthquake Activity

City Distance Mag. Time & Date
No recent earthquake activity has been reported nearby.
Minimum magnitude displayed is 2.5.

Nearby Weather Stations

Station Location Temp. Windchill Dew Point Humidity Wind Precip. Elev Updated Type
Panhandle Coop/Box Butte Co, Alliance, NE 31.8 °F 25 °F 29 °F 90% East  at  7.0 mph 0.00 in / hr 4124 ft 7:17 AM MDT Normal
Wayne Rd., Alliance, NE 31.6 °F 21 °F 29 °F 90% South  at  15.0 mph 0.00 in / hr 4078 ft 7:25 AM MDT Normal

Show More Stations Show Fewer Stations

What do you think?

We're not finished. Please let us know what you like, what you don't like, and what you are still missing.